sensor_id;sensor_type;location;lat;lon;timestamp;P1;durP1;ratioP1;P2;durP2;ratioP2
13269;SDS011;6703;51.994;7.570;2022-09-09T00:00:40;6.97;;;1.73;;
13269;SDS011;6703;51.994;7.570;2022-09-09T00:03:12;4.68;;;1.70;;
13269;SDS011;6703;51.994;7.570;2022-09-09T00:05:45;6.30;;;1.50;;
13269;SDS011;6703;51.994;7.570;2022-09-09T00:08:19;6.40;;;1.20;;
13269;SDS011;6703;51.994;7.570;2022-09-09T00:14:21;6.70;;;1.60;;
13269;SDS011;6703;51.994;7.570;2022-09-09T00:17:08;2.97;;;1.27;;
13269;SDS011;6703;51.994;7.570;2022-09-09T00:19:38;3.88;;;1.40;;
13269;SDS011;6703;51.994;7.570;2022-09-09T00:22:13;2.67;;;1.33;;
13269;SDS011;6703;51.994;7.570;2022-09-09T00:24:44;3.28;;;1.30;;
13269;SDS011;6703;51.994;7.570;2022-09-09T00:27:16;2.67;;;1.27;;
13269;SDS011;6703;51.994;7.570;2022-09-09T00:29:53;3.60;;;1.40;;
13269;SDS011;6703;51.994;7.570;2022-09-09T00:32:22;2.90;;;1.38;;
13269;SDS011;6703;51.994;7.570;2022-09-09T00:34:56;4.47;;;1.38;;
13269;SDS011;6703;51.994;7.570;2022-09-09T00:37:26;4.68;;;2.10;;
13269;SDS011;6703;51.994;7.570;2022-09-09T00:39:55;9.32;;;1.50;;
13269;SDS011;6703;51.994;7.570;2022-09-09T00:42:26;8.97;;;1.40;;
13269;SDS011;6703;51.994;7.570;2022-09-09T00:45:02;6.80;;;1.70;;
13269;SDS011;6703;51.994;7.570;2022-09-09T00:47:43;7.03;;;1.38;;
13269;SDS011;6703;51.994;7.570;2022-09-09T00:50:15;3.28;;;1.27;;
13269;SDS011;6703;51.994;7.570;2022-09-09T00:52:54;3.20;;;1.63;;
13269;SDS011;6703;51.994;7.570;2022-09-09T00:55:28;3.05;;;1.60;;
13269;SDS011;6703;51.994;7.570;2022-09-09T00:58:02;4.30;;;1.63;;
13269;SDS011;6703;51.994;7.570;2022-09-09T01:00:36;8.60;;;1.83;;
13269;SDS011;6703;51.994;7.570;2022-09-09T01:03:14;5.00;;;1.20;;
13269;SDS011;6703;51.994;7.570;2022-09-09T01:05:52;2.95;;;1.80;;
13269;SDS011;6703;51.994;7.570;2022-09-09T01:08:36;5.80;;;1.43;;
13269;SDS011;6703;51.994;7.570;2022-09-09T01:11:10;3.85;;;1.15;;
13269;SDS011;6703;51.994;7.570;2022-09-09T01:13:45;1.60;;;0.90;;
13269;SDS011;6703;51.994;7.570;2022-09-09T01:16:20;4.70;;;1.00;;
13269;SDS011;6703;51.994;7.570;2022-09-09T01:18:49;3.03;;;1.10;;
13269;SDS011;6703;51.994;7.570;2022-09-09T01:21:22;2.53;;;0.80;;
13269;SDS011;6703;51.994;7.570;2022-09-09T01:24:01;1.08;;;0.80;;
13269;SDS011;6703;51.994;7.570;2022-09-09T01:26:37;2.80;;;0.80;;
13269;SDS011;6703;51.994;7.570;2022-09-09T01:29:07;3.70;;;0.60;;
13269;SDS011;6703;51.994;7.570;2022-09-09T01:31:37;3.60;;;0.63;;
13269;SDS011;6703;51.994;7.570;2022-09-09T01:34:10;0.82;;;0.50;;
13269;SDS011;6703;51.994;7.570;2022-09-09T01:36:40;5.03;;;0.95;;
13269;SDS011;6703;51.994;7.570;2022-09-09T01:39:10;4.30;;;0.70;;
13269;SDS011;6703;51.994;7.570;2022-09-09T01:41:40;2.83;;;0.67;;
13269;SDS011;6703;51.994;7.570;2022-09-09T01:44:08;1.90;;;0.70;;
13269;SDS011;6703;51.994;7.570;2022-09-09T01:46:38;5.40;;;0.73;;
13269;SDS011;6703;51.994;7.570;2022-09-09T01:49:06;5.30;;;0.80;;
13269;SDS011;6703;51.994;7.570;2022-09-09T01:51:36;1.40;;;0.65;;
13269;SDS011;6703;51.994;7.570;2022-09-09T01:54:07;7.13;;;0.60;;
13269;SDS011;6703;51.994;7.570;2022-09-09T01:56:37;5.70;;;1.02;;
13269;SDS011;6703;51.994;7.570;2022-09-09T01:59:25;3.90;;;0.75;;
13269;SDS011;6703;51.994;7.570;2022-09-09T02:02:07;1.92;;;0.80;;
13269;SDS011;6703;51.994;7.570;2022-09-09T02:04:38;2.07;;;0.87;;
13269;SDS011;6703;51.994;7.570;2022-09-09T02:07:10;2.70;;;0.82;;
13269;SDS011;6703;51.994;7.570;2022-09-09T02:09:47;3.13;;;0.75;;
13269;SDS011;6703;51.994;7.570;2022-09-09T02:12:19;2.08;;;0.88;;
13269;SDS011;6703;51.994;7.570;2022-09-09T02:14:50;2.60;;;1.00;;
13269;SDS011;6703;51.994;7.570;2022-09-09T02:17:21;2.67;;;1.00;;
13269;SDS011;6703;51.994;7.570;2022-09-09T02:19:53;2.10;;;0.73;;
13269;SDS011;6703;51.994;7.570;2022-09-09T02:22:25;1.67;;;0.75;;
13269;SDS011;6703;51.994;7.570;2022-09-09T02:24:56;2.97;;;0.77;;
13269;SDS011;6703;51.994;7.570;2022-09-09T02:27:27;1.27;;;0.75;;
13269;SDS011;6703;51.994;7.570;2022-09-09T02:29:55;1.27;;;0.68;;
13269;SDS011;6703;51.994;7.570;2022-09-09T02:32:24;6.03;;;1.20;;
13269;SDS011;6703;51.994;7.570;2022-09-09T02:34:53;1.08;;;0.80;;
13269;SDS011;6703;51.994;7.570;2022-09-09T02:37:23;3.88;;;1.02;;
13269;SDS011;6703;51.994;7.570;2022-09-09T02:39:56;6.20;;;1.10;;
13269;SDS011;6703;51.994;7.570;2022-09-09T02:42:27;5.03;;;1.10;;
13269;SDS011;6703;51.994;7.570;2022-09-09T02:44:55;2.70;;;0.98;;
13269;SDS011;6703;51.994;7.570;2022-09-09T02:47:25;3.28;;;0.82;;
13269;SDS011;6703;51.994;7.570;2022-09-09T02:49:57;4.55;;;1.10;;
13269;SDS011;6703;51.994;7.570;2022-09-09T02:52:32;3.93;;;0.93;;
13269;SDS011;6703;51.994;7.570;2022-09-09T02:55:07;3.58;;;1.15;;
13269;SDS011;6703;51.994;7.570;2022-09-09T02:57:40;3.63;;;1.20;;
13269;SDS011;6703;51.994;7.570;2022-09-09T03:00:09;3.88;;;1.10;;
13269;SDS011;6703;51.994;7.570;2022-09-09T03:02:38;1.05;;;0.90;;
13269;SDS011;6703;51.994;7.570;2022-09-09T03:05:06;5.00;;;0.95;;
13269;SDS011;6703;51.994;7.570;2022-09-09T03:07:34;1.07;;;0.90;;
13269;SDS011;6703;51.994;7.570;2022-09-09T03:10:03;2.15;;;0.80;;
13269;SDS011;6703;51.994;7.570;2022-09-09T03:12:32;3.45;;;1.15;;
13269;SDS011;6703;51.994;7.570;2022-09-09T03:15:01;4.53;;;0.88;;
13269;SDS011;6703;51.994;7.570;2022-09-09T03:17:30;4.70;;;0.85;;
13269;SDS011;6703;51.994;7.570;2022-09-09T03:23:27;4.88;;;0.80;;
13269;SDS011;6703;51.994;7.570;2022-09-09T03:25:57;1.95;;;1.10;;
13269;SDS011;6703;51.994;7.570;2022-09-09T03:28:25;4.88;;;0.80;;
13269;SDS011;6703;51.994;7.570;2022-09-09T03:30:59;3.65;;;0.95;;
13269;SDS011;6703;51.994;7.570;2022-09-09T03:33:27;1.50;;;0.90;;
13269;SDS011;6703;51.994;7.570;2022-09-09T03:35:55;1.42;;;0.90;;
13269;SDS011;6703;51.994;7.570;2022-09-09T03:38:23;4.57;;;1.20;;
13269;SDS011;6703;51.994;7.570;2022-09-09T03:40:52;4.03;;;1.15;;
13269;SDS011;6703;51.994;7.570;2022-09-09T03:43:23;2.47;;;1.13;;
13269;SDS011;6703;51.994;7.570;2022-09-09T03:45:52;6.22;;;1.20;;
13269;SDS011;6703;51.994;7.570;2022-09-09T03:48:28;3.15;;;1.33;;
13269;SDS011;6703;51.994;7.570;2022-09-09T03:50:56;3.25;;;1.23;;
13269;SDS011;6703;51.994;7.570;2022-09-09T03:53:27;3.15;;;1.25;;
13269;SDS011;6703;51.994;7.570;2022-09-09T03:59:27;1.50;;;1.23;;
13269;SDS011;6703;51.994;7.570;2022-09-09T04:01:56;7.15;;;1.63;;
13269;SDS011;6703;51.994;7.570;2022-09-09T04:04:26;4.90;;;1.60;;
13269;SDS011;6703;51.994;7.570;2022-09-09T04:06:54;5.05;;;1.35;;
13269;SDS011;6703;51.994;7.570;2022-09-09T04:09:22;3.28;;;1.70;;
13269;SDS011;6703;51.994;7.570;2022-09-09T04:11:50;6.95;;;1.95;;
13269;SDS011;6703;51.994;7.570;2022-09-09T04:14:19;8.07;;;1.98;;
13269;SDS011;6703;51.994;7.570;2022-09-09T04:16:47;3.78;;;1.83;;
13269;SDS011;6703;51.994;7.570;2022-09-09T04:19:15;7.25;;;2.22;;
13269;SDS011;6703;51.994;7.570;2022-09-09T04:21:45;13.20;;;2.28;;
13269;SDS011;6703;51.994;7.570;2022-09-09T04:24:13;9.00;;;2.10;;
13269;SDS011;6703;51.994;7.570;2022-09-09T04:26:43;6.47;;;2.25;;
13269;SDS011;6703;51.994;7.570;2022-09-09T04:29:11;4.83;;;2.03;;
13269;SDS011;6703;51.994;7.570;2022-09-09T04:31:39;5.68;;;2.40;;
13269;SDS011;6703;51.994;7.570;2022-09-09T04:34:08;5.50;;;2.40;;
13269;SDS011;6703;51.994;7.570;2022-09-09T04:36:36;7.55;;;2.58;;
13269;SDS011;6703;51.994;7.570;2022-09-09T04:39:08;10.85;;;2.70;;
13269;SDS011;6703;51.994;7.570;2022-09-09T04:41:36;11.45;;;3.03;;
13269;SDS011;6703;51.994;7.570;2022-09-09T04:44:03;8.57;;;2.78;;
13269;SDS011;6703;51.994;7.570;2022-09-09T04:46:32;11.07;;;3.45;;
13269;SDS011;6703;51.994;7.570;2022-09-09T04:49:01;13.77;;;3.17;;
13269;SDS011;6703;51.994;7.570;2022-09-09T04:51:29;8.88;;;3.70;;
13269;SDS011;6703;51.994;7.570;2022-09-09T04:53:57;8.00;;;3.10;;
13269;SDS011;6703;51.994;7.570;2022-09-09T04:56:28;9.25;;;3.33;;
13269;SDS011;6703;51.994;7.570;2022-09-09T04:58:56;11.90;;;3.43;;
13269;SDS011;6703;51.994;7.570;2022-09-09T05:01:24;9.38;;;3.75;;
13269;SDS011;6703;51.994;7.570;2022-09-09T05:03:53;7.57;;;3.60;;
13269;SDS011;6703;51.994;7.570;2022-09-09T05:06:21;8.07;;;3.70;;
13269;SDS011;6703;51.994;7.570;2022-09-09T05:08:49;9.30;;;3.97;;
13269;SDS011;6703;51.994;7.570;2022-09-09T05:11:19;14.40;;;3.80;;
13269;SDS011;6703;51.994;7.570;2022-09-09T05:13:51;15.00;;;4.30;;
13269;SDS011;6703;51.994;7.570;2022-09-09T05:16:20;14.70;;;4.30;;
13269;SDS011;6703;51.994;7.570;2022-09-09T05:18:49;10.07;;;3.63;;
13269;SDS011;6703;51.994;7.570;2022-09-09T05:21:18;10.95;;;3.80;;
13269;SDS011;6703;51.994;7.570;2022-09-09T05:23:48;7.50;;;3.85;;
13269;SDS011;6703;51.994;7.570;2022-09-09T05:29:48;13.52;;;3.83;;
13269;SDS011;6703;51.994;7.570;2022-09-09T05:32:16;11.07;;;3.77;;
13269;SDS011;6703;51.994;7.570;2022-09-09T05:34:43;7.05;;;3.40;;
13269;SDS011;6703;51.994;7.570;2022-09-09T05:37:13;11.77;;;3.65;;
13269;SDS011;6703;51.994;7.570;2022-09-09T05:39:40;9.02;;;3.50;;
13269;SDS011;6703;51.994;7.570;2022-09-09T05:42:09;7.85;;;3.47;;
13269;SDS011;6703;51.994;7.570;2022-09-09T05:44:37;11.38;;;3.13;;
13269;SDS011;6703;51.994;7.570;2022-09-09T05:47:06;9.38;;;3.60;;
13269;SDS011;6703;51.994;7.570;2022-09-09T05:49:34;11.10;;;3.70;;
13269;SDS011;6703;51.994;7.570;2022-09-09T05:52:02;8.47;;;3.47;;
13269;SDS011;6703;51.994;7.570;2022-09-09T05:54:31;12.82;;;3.63;;
13269;SDS011;6703;51.994;7.570;2022-09-09T05:56:58;11.88;;;3.53;;
13269;SDS011;6703;51.994;7.570;2022-09-09T05:59:26;12.43;;;3.57;;
13269;SDS011;6703;51.994;7.570;2022-09-09T06:01:54;9.00;;;2.88;;
13269;SDS011;6703;51.994;7.570;2022-09-09T06:04:25;12.52;;;3.35;;
13269;SDS011;6703;51.994;7.570;2022-09-09T06:06:52;10.52;;;3.72;;
13269;SDS011;6703;51.994;7.570;2022-09-09T06:09:19;11.67;;;3.30;;
13269;SDS011;6703;51.994;7.570;2022-09-09T06:11:47;12.38;;;3.85;;
13269;SDS011;6703;51.994;7.570;2022-09-09T06:14:15;9.73;;;3.28;;
13269;SDS011;6703;51.994;7.570;2022-09-09T06:16:44;14.75;;;3.88;;
13269;SDS011;6703;51.994;7.570;2022-09-09T06:19:12;10.13;;;3.30;;
13269;SDS011;6703;51.994;7.570;2022-09-09T06:21:41;10.70;;;2.90;;
13269;SDS011;6703;51.994;7.570;2022-09-09T06:24:10;9.45;;;2.88;;
13269;SDS011;6703;51.994;7.570;2022-09-09T06:26:39;5.80;;;2.70;;
13269;SDS011;6703;51.994;7.570;2022-09-09T06:29:08;5.15;;;2.63;;
13269;SDS011;6703;51.994;7.570;2022-09-09T06:31:36;11.90;;;3.28;;
13269;SDS011;6703;51.994;7.570;2022-09-09T06:34:05;6.35;;;3.05;;
13269;SDS011;6703;51.994;7.570;2022-09-09T06:36:34;9.30;;;2.55;;
13269;SDS011;6703;51.994;7.570;2022-09-09T06:39:09;5.63;;;2.35;;
13269;SDS011;6703;51.994;7.570;2022-09-09T06:41:40;7.13;;;2.35;;
13269;SDS011;6703;51.994;7.570;2022-09-09T06:44:08;6.70;;;2.40;;
13269;SDS011;6703;51.994;7.570;2022-09-09T06:46:37;10.70;;;2.70;;
13269;SDS011;6703;51.994;7.570;2022-09-09T06:49:05;9.60;;;2.47;;
13269;SDS011;6703;51.994;7.570;2022-09-09T06:51:35;7.45;;;2.22;;
13269;SDS011;6703;51.994;7.570;2022-09-09T06:54:10;7.22;;;2.20;;
13269;SDS011;6703;51.994;7.570;2022-09-09T06:56:39;8.82;;;2.03;;
13269;SDS011;6703;51.994;7.570;2022-09-09T06:59:08;8.93;;;2.35;;
13269;SDS011;6703;51.994;7.570;2022-09-09T07:01:37;11.77;;;2.50;;
13269;SDS011;6703;51.994;7.570;2022-09-09T07:04:06;6.18;;;2.05;;
13269;SDS011;6703;51.994;7.570;2022-09-09T07:06:35;7.53;;;2.10;;
13269;SDS011;6703;51.994;7.570;2022-09-09T07:09:05;8.88;;;1.98;;
13269;SDS011;6703;51.994;7.570;2022-09-09T07:11:37;5.32;;;2.15;;
13269;SDS011;6703;51.994;7.570;2022-09-09T07:14:06;7.68;;;2.17;;
13269;SDS011;6703;51.994;7.570;2022-09-09T07:16:34;4.80;;;1.90;;
13269;SDS011;6703;51.994;7.570;2022-09-09T07:19:03;9.07;;;1.88;;
13269;SDS011;6703;51.994;7.570;2022-09-09T07:21:31;5.83;;;1.90;;
13269;SDS011;6703;51.994;7.570;2022-09-09T07:24:00;8.52;;;2.03;;
13269;SDS011;6703;51.994;7.570;2022-09-09T07:26:28;8.50;;;2.30;;
13269;SDS011;6703;51.994;7.570;2022-09-09T07:28:58;5.28;;;1.95;;
13269;SDS011;6703;51.994;7.570;2022-09-09T07:31:27;7.80;;;2.20;;
13269;SDS011;6703;51.994;7.570;2022-09-09T07:33:57;8.20;;;2.25;;
13269;SDS011;6703;51.994;7.570;2022-09-09T07:36:26;10.18;;;2.20;;
13269;SDS011;6703;51.994;7.570;2022-09-09T07:38:59;9.52;;;2.30;;
13269;SDS011;6703;51.994;7.570;2022-09-09T07:41:28;6.13;;;1.83;;
13269;SDS011;6703;51.994;7.570;2022-09-09T07:43:59;9.75;;;2.20;;
13269;SDS011;6703;51.994;7.570;2022-09-09T07:46:31;11.45;;;2.60;;
13269;SDS011;6703;51.994;7.570;2022-09-09T07:48:58;7.45;;;2.25;;
13269;SDS011;6703;51.994;7.570;2022-09-09T07:51:31;9.50;;;2.10;;
13269;SDS011;6703;51.994;7.570;2022-09-09T07:54:04;4.93;;;1.88;;
13269;SDS011;6703;51.994;7.570;2022-09-09T07:56:33;6.93;;;1.60;;
13269;SDS011;6703;51.994;7.570;2022-09-09T07:59:03;10.82;;;2.08;;
13269;SDS011;6703;51.994;7.570;2022-09-09T08:01:33;5.97;;;1.70;;
13269;SDS011;6703;51.994;7.570;2022-09-09T08:04:06;13.55;;;3.92;;
13269;SDS011;6703;51.994;7.570;2022-09-09T08:06:35;10.20;;;2.30;;
13269;SDS011;6703;51.994;7.570;2022-09-09T08:09:04;7.55;;;2.28;;
13269;SDS011;6703;51.994;7.570;2022-09-09T08:11:32;11.00;;;2.17;;
13269;SDS011;6703;51.994;7.570;2022-09-09T08:14:06;6.65;;;1.73;;
13269;SDS011;6703;51.994;7.570;2022-09-09T08:16:36;7.18;;;2.28;;
13269;SDS011;6703;51.994;7.570;2022-09-09T08:19:04;7.60;;;1.90;;
13269;SDS011;6703;51.994;7.570;2022-09-09T08:21:33;10.32;;;2.58;;
13269;SDS011;6703;51.994;7.570;2022-09-09T08:24:03;11.40;;;3.90;;
13269;SDS011;6703;51.994;7.570;2022-09-09T08:26:31;9.13;;;3.65;;
13269;SDS011;6703;51.994;7.570;2022-09-09T08:29:01;11.55;;;2.70;;
13269;SDS011;6703;51.994;7.570;2022-09-09T08:31:31;9.23;;;1.98;;
13269;SDS011;6703;51.994;7.570;2022-09-09T08:34:00;6.95;;;1.80;;
13269;SDS011;6703;51.994;7.570;2022-09-09T08:36:29;10.13;;;2.20;;
13269;SDS011;6703;51.994;7.570;2022-09-09T08:38:59;8.80;;;1.90;;
13269;SDS011;6703;51.994;7.570;2022-09-09T08:44:20;17.35;;;2.50;;
13269;SDS011;6703;51.994;7.570;2022-09-09T08:46:54;11.18;;;2.67;;
13269;SDS011;6703;51.994;7.570;2022-09-09T08:49:33;31.83;;;10.55;;
13269;SDS011;6703;51.994;7.570;2022-09-09T08:52:08;14.23;;;5.18;;
13269;SDS011;6703;51.994;7.570;2022-09-09T08:54:41;7.95;;;1.88;;
13269;SDS011;6703;51.994;7.570;2022-09-09T08:57:18;14.27;;;2.45;;
13269;SDS011;6703;51.994;7.570;2022-09-09T08:59:48;3.80;;;1.50;;
13269;SDS011;6703;51.994;7.570;2022-09-09T09:02:19;8.95;;;1.73;;
13269;SDS011;6703;51.994;7.570;2022-09-09T09:04:52;8.82;;;1.50;;
13269;SDS011;6703;51.994;7.570;2022-09-09T09:07:30;9.57;;;1.75;;
13269;SDS011;6703;51.994;7.570;2022-09-09T09:10:04;9.25;;;2.15;;
13269;SDS011;6703;51.994;7.570;2022-09-09T09:12:57;7.50;;;1.20;;
13269;SDS011;6703;51.994;7.570;2022-09-09T09:15:30;6.20;;;1.25;;
13269;SDS011;6703;51.994;7.570;2022-09-09T09:18:00;11.30;;;1.38;;
13269;SDS011;6703;51.994;7.570;2022-09-09T09:20:29;7.47;;;1.35;;
13269;SDS011;6703;51.994;7.570;2022-09-09T09:23:00;8.55;;;1.50;;
13269;SDS011;6703;51.994;7.570;2022-09-09T09:25:31;4.63;;;1.20;;
13269;SDS011;6703;51.994;7.570;2022-09-09T09:28:02;5.77;;;1.03;;
13269;SDS011;6703;51.994;7.570;2022-09-09T09:30:42;8.37;;;1.50;;
13269;SDS011;6703;51.994;7.570;2022-09-09T09:33:14;11.27;;;1.90;;
13269;SDS011;6703;51.994;7.570;2022-09-09T09:35:44;6.78;;;1.27;;
13269;SDS011;6703;51.994;7.570;2022-09-09T09:38:14;18.93;;;6.13;;
13269;SDS011;6703;51.994;7.570;2022-09-09T09:41:04;31.17;;;12.50;;
13269;SDS011;6703;51.994;7.570;2022-09-09T09:43:32;12.77;;;4.57;;
13269;SDS011;6703;51.994;7.570;2022-09-09T09:46:00;7.47;;;1.45;;
13269;SDS011;6703;51.994;7.570;2022-09-09T09:48:44;6.73;;;1.50;;
13269;SDS011;6703;51.994;7.570;2022-09-09T09:51:13;4.10;;;1.10;;
13269;SDS011;6703;51.994;7.570;2022-09-09T09:53:49;10.48;;;3.05;;
13269;SDS011;6703;51.994;7.570;2022-09-09T09:56:25;9.23;;;3.45;;
13269;SDS011;6703;51.994;7.570;2022-09-09T09:58:58;8.50;;;1.83;;
13269;SDS011;6703;51.994;7.570;2022-09-09T10:01:34;6.80;;;1.80;;
13269;SDS011;6703;51.994;7.570;2022-09-09T10:04:13;12.98;;;1.38;;
13269;SDS011;6703;51.994;7.570;2022-09-09T10:06:42;7.18;;;1.52;;
13269;SDS011;6703;51.994;7.570;2022-09-09T10:09:20;7.73;;;1.30;;
13269;SDS011;6703;51.994;7.570;2022-09-09T10:11:51;8.40;;;2.30;;
13269;SDS011;6703;51.994;7.570;2022-09-09T10:14:29;24.63;;;9.00;;
13269;SDS011;6703;51.994;7.570;2022-09-09T10:17:02;18.58;;;6.53;;
13269;SDS011;6703;51.994;7.570;2022-09-09T10:19:37;8.50;;;1.40;;
13269;SDS011;6703;51.994;7.570;2022-09-09T10:22:19;5.90;;;1.10;;
13269;SDS011;6703;51.994;7.570;2022-09-09T10:27:57;4.75;;;1.00;;
13269;SDS011;6703;51.994;7.570;2022-09-09T10:30:37;5.18;;;1.42;;
13269;SDS011;6703;51.994;7.570;2022-09-09T10:33:10;14.43;;;4.07;;
13269;SDS011;6703;51.994;7.570;2022-09-09T10:35:44;15.68;;;5.18;;
13269;SDS011;6703;51.994;7.570;2022-09-09T10:38:18;17.05;;;6.40;;
13269;SDS011;6703;51.994;7.570;2022-09-09T10:40:59;11.27;;;2.92;;
13269;SDS011;6703;51.994;7.570;2022-09-09T10:43:39;3.63;;;1.17;;
13269;SDS011;6703;51.994;7.570;2022-09-09T10:46:14;2.97;;;0.75;;
13269;SDS011;6703;51.994;7.570;2022-09-09T10:48:49;3.17;;;0.90;;
13269;SDS011;6703;51.994;7.570;2022-09-09T10:51:28;7.68;;;1.75;;
13269;SDS011;6703;51.994;7.570;2022-09-09T10:54:07;9.00;;;1.58;;
13269;SDS011;6703;51.994;7.570;2022-09-09T10:56:40;10.40;;;4.28;;
13269;SDS011;6703;51.994;7.570;2022-09-09T10:59:11;5.40;;;1.38;;
13269;SDS011;6703;51.994;7.570;2022-09-09T11:01:43;5.30;;;1.58;;
13269;SDS011;6703;51.994;7.570;2022-09-09T11:04:14;7.00;;;1.20;;
13269;SDS011;6703;51.994;7.570;2022-09-09T11:06:46;5.75;;;1.30;;
13269;SDS011;6703;51.994;7.570;2022-09-09T11:09:19;5.90;;;1.08;;
13269;SDS011;6703;51.994;7.570;2022-09-09T11:11:50;4.60;;;0.98;;
13269;SDS011;6703;51.994;7.570;2022-09-09T11:14:21;7.82;;;1.40;;
13269;SDS011;6703;51.994;7.570;2022-09-09T11:17:02;3.95;;;1.27;;
13269;SDS011;6703;51.994;7.570;2022-09-09T11:19:33;6.40;;;1.10;;
13269;SDS011;6703;51.994;7.570;2022-09-09T11:22:04;4.53;;;1.08;;
13269;SDS011;6703;51.994;7.570;2022-09-09T11:24:35;4.20;;;1.02;;
13269;SDS011;6703;51.994;7.570;2022-09-09T11:27:07;6.28;;;1.38;;
13269;SDS011;6703;51.994;7.570;2022-09-09T11:35:44;8.27;;;2.87;;
13269;SDS011;6703;51.994;7.570;2022-09-09T11:38:23;12.13;;;4.03;;
13269;SDS011;6703;51.994;7.570;2022-09-09T11:40:54;3.95;;;1.55;;
13269;SDS011;6703;51.994;7.570;2022-09-09T11:43:24;6.70;;;1.63;;
13269;SDS011;6703;51.994;7.570;2022-09-09T11:45:55;6.45;;;1.73;;
13269;SDS011;6703;51.994;7.570;2022-09-09T11:48:28;5.78;;;1.15;;
13269;SDS011;6703;51.994;7.570;2022-09-09T11:51:00;6.03;;;1.33;;
13269;SDS011;6703;51.994;7.570;2022-09-09T11:53:48;3.72;;;0.93;;
13269;SDS011;6703;51.994;7.570;2022-09-09T11:56:29;9.07;;;1.50;;
13269;SDS011;6703;51.994;7.570;2022-09-09T11:58:59;7.63;;;1.05;;
13269;SDS011;6703;51.994;7.570;2022-09-09T12:01:38;10.02;;;1.23;;
13269;SDS011;6703;51.994;7.570;2022-09-09T12:07:01;14.98;;;6.25;;
13269;SDS011;6703;51.994;7.570;2022-09-09T12:09:43;3.93;;;1.27;;
13269;SDS011;6703;51.994;7.570;2022-09-09T12:12:21;4.90;;;1.23;;
13269;SDS011;6703;51.994;7.570;2022-09-09T12:15:23;5.72;;;0.82;;
13269;SDS011;6703;51.994;7.570;2022-09-09T12:17:55;7.63;;;0.80;;
13269;SDS011;6703;51.994;7.570;2022-09-09T12:20:31;2.25;;;0.50;;
13269;SDS011;6703;51.994;7.570;2022-09-09T12:23:06;4.07;;;0.60;;
13269;SDS011;6703;51.994;7.570;2022-09-09T12:25:48;6.10;;;0.80;;
13269;SDS011;6703;51.994;7.570;2022-09-09T12:28:22;4.40;;;0.60;;
13269;SDS011;6703;51.994;7.570;2022-09-09T12:30:55;9.85;;;3.70;;
13269;SDS011;6703;51.994;7.570;2022-09-09T12:33:33;2.30;;;0.55;;
13269;SDS011;6703;51.994;7.570;2022-09-09T12:36:02;3.60;;;0.90;;
13269;SDS011;6703;51.994;7.570;2022-09-09T12:38:32;6.80;;;0.70;;
13269;SDS011;6703;51.994;7.570;2022-09-09T12:41:03;2.33;;;0.65;;
13269;SDS011;6703;51.994;7.570;2022-09-09T12:43:31;3.50;;;0.70;;
13269;SDS011;6703;51.994;7.570;2022-09-09T12:45:59;4.45;;;0.73;;
13269;SDS011;6703;51.994;7.570;2022-09-09T12:48:31;4.80;;;0.70;;
13269;SDS011;6703;51.994;7.570;2022-09-09T12:51:03;3.55;;;0.75;;
13269;SDS011;6703;51.994;7.570;2022-09-09T12:53:33;2.28;;;0.60;;
13269;SDS011;6703;51.994;7.570;2022-09-09T12:56:04;2.33;;;0.55;;
13269;SDS011;6703;51.994;7.570;2022-09-09T12:58:33;5.05;;;0.75;;
13269;SDS011;6703;51.994;7.570;2022-09-09T13:01:03;3.70;;;0.67;;
13269;SDS011;6703;51.994;7.570;2022-09-09T13:03:32;5.18;;;0.60;;
13269;SDS011;6703;51.994;7.570;2022-09-09T13:06:10;3.15;;;0.80;;
13269;SDS011;6703;51.994;7.570;2022-09-09T13:08:40;4.40;;;0.77;;
13269;SDS011;6703;51.994;7.570;2022-09-09T13:11:10;2.40;;;0.80;;
13269;SDS011;6703;51.994;7.570;2022-09-09T13:13:41;4.07;;;0.70;;
13269;SDS011;6703;51.994;7.570;2022-09-09T13:16:18;5.68;;;1.30;;
13269;SDS011;6703;51.994;7.570;2022-09-09T13:18:47;3.17;;;0.73;;
13269;SDS011;6703;51.994;7.570;2022-09-09T13:21:15;5.30;;;0.77;;
13269;SDS011;6703;51.994;7.570;2022-09-09T13:23:47;2.10;;;0.82;;
13269;SDS011;6703;51.994;7.570;2022-09-09T13:26:21;4.70;;;0.70;;
13269;SDS011;6703;51.994;7.570;2022-09-09T13:28:50;9.43;;;1.00;;
13269;SDS011;6703;51.994;7.570;2022-09-09T13:31:20;5.65;;;1.10;;
13269;SDS011;6703;51.994;7.570;2022-09-09T13:33:48;4.78;;;1.15;;
13269;SDS011;6703;51.994;7.570;2022-09-09T13:36:16;9.20;;;3.67;;
13269;SDS011;6703;51.994;7.570;2022-09-09T13:38:55;10.77;;;4.05;;
13269;SDS011;6703;51.994;7.570;2022-09-09T13:41:28;10.13;;;2.17;;
13269;SDS011;6703;51.994;7.570;2022-09-09T13:43:57;6.30;;;2.20;;
13269;SDS011;6703;51.994;7.570;2022-09-09T13:46:27;8.02;;;1.88;;
13269;SDS011;6703;51.994;7.570;2022-09-09T13:48:57;5.85;;;2.35;;
13269;SDS011;6703;51.994;7.570;2022-09-09T13:51:29;5.18;;;1.98;;
13269;SDS011;6703;51.994;7.570;2022-09-09T13:54:00;3.38;;;1.10;;
13269;SDS011;6703;51.994;7.570;2022-09-09T13:56:29;9.13;;;1.42;;
13269;SDS011;6703;51.994;7.570;2022-09-09T13:58:58;7.13;;;1.33;;
13269;SDS011;6703;51.994;7.570;2022-09-09T14:01:25;5.25;;;1.10;;
13269;SDS011;6703;51.994;7.570;2022-09-09T14:03:55;9.70;;;1.20;;
13269;SDS011;6703;51.994;7.570;2022-09-09T14:06:23;4.38;;;1.23;;
13269;SDS011;6703;51.994;7.570;2022-09-09T14:08:50;8.98;;;1.67;;
13269;SDS011;6703;51.994;7.570;2022-09-09T14:11:20;3.58;;;1.20;;
13269;SDS011;6703;51.994;7.570;2022-09-09T14:13:49;8.85;;;3.10;;
13269;SDS011;6703;51.994;7.570;2022-09-09T14:16:17;5.20;;;1.40;;
13269;SDS011;6703;51.994;7.570;2022-09-09T14:18:45;6.70;;;1.25;;
13269;SDS011;6703;51.994;7.570;2022-09-09T14:21:13;6.68;;;2.00;;
13269;SDS011;6703;51.994;7.570;2022-09-09T14:23:41;3.85;;;1.17;;
13269;SDS011;6703;51.994;7.570;2022-09-09T14:26:09;3.90;;;1.05;;
13269;SDS011;6703;51.994;7.570;2022-09-09T14:28:36;4.63;;;0.85;;
13269;SDS011;6703;51.994;7.570;2022-09-09T14:31:23;3.63;;;1.00;;
13269;SDS011;6703;51.994;7.570;2022-09-09T14:33:51;4.53;;;1.50;;
13269;SDS011;6703;51.994;7.570;2022-09-09T14:36:18;8.90;;;1.42;;
13269;SDS011;6703;51.994;7.570;2022-09-09T14:38:46;5.55;;;1.33;;
13269;SDS011;6703;51.994;7.570;2022-09-09T14:41:15;7.72;;;1.85;;
13269;SDS011;6703;51.994;7.570;2022-09-09T14:43:45;3.28;;;1.20;;
13269;SDS011;6703;51.994;7.570;2022-09-09T14:46:13;3.33;;;1.08;;
13269;SDS011;6703;51.994;7.570;2022-09-09T14:48:43;4.15;;;1.20;;
13269;SDS011;6703;51.994;7.570;2022-09-09T14:51:12;8.10;;;2.20;;
13269;SDS011;6703;51.994;7.570;2022-09-09T14:53:41;2.85;;;1.25;;
13269;SDS011;6703;51.994;7.570;2022-09-09T14:56:11;3.25;;;0.80;;
13269;SDS011;6703;51.994;7.570;2022-09-09T14:58:39;4.82;;;0.70;;
13269;SDS011;6703;51.994;7.570;2022-09-09T15:01:08;3.67;;;1.00;;
13269;SDS011;6703;51.994;7.570;2022-09-09T15:03:37;3.47;;;0.80;;
13269;SDS011;6703;51.994;7.570;2022-09-09T15:06:06;3.85;;;0.60;;
13269;SDS011;6703;51.994;7.570;2022-09-09T15:08:35;2.78;;;0.98;;
13269;SDS011;6703;51.994;7.570;2022-09-09T15:11:08;5.25;;;1.15;;
13269;SDS011;6703;51.994;7.570;2022-09-09T15:13:36;4.22;;;0.63;;
13269;SDS011;6703;51.994;7.570;2022-09-09T15:16:05;4.32;;;0.50;;
13269;SDS011;6703;51.994;7.570;2022-09-09T15:18:34;2.07;;;0.47;;
13269;SDS011;6703;51.994;7.570;2022-09-09T15:21:02;2.83;;;0.63;;
13269;SDS011;6703;51.994;7.570;2022-09-09T15:23:32;5.17;;;0.50;;
13269;SDS011;6703;51.994;7.570;2022-09-09T15:26:02;1.13;;;0.50;;
13269;SDS011;6703;51.994;7.570;2022-09-09T15:28:30;2.50;;;0.60;;
13269;SDS011;6703;51.994;7.570;2022-09-09T15:30:58;2.38;;;0.47;;
13269;SDS011;6703;51.994;7.570;2022-09-09T15:33:26;3.90;;;1.00;;
13269;SDS011;6703;51.994;7.570;2022-09-09T15:35:55;3.80;;;0.98;;
13269;SDS011;6703;51.994;7.570;2022-09-09T15:38:22;2.28;;;0.50;;
13269;SDS011;6703;51.994;7.570;2022-09-09T15:40:54;3.42;;;1.48;;
13269;SDS011;6703;51.994;7.570;2022-09-09T15:43:23;3.38;;;0.73;;
13269;SDS011;6703;51.994;7.570;2022-09-09T15:45:52;4.50;;;1.35;;
13269;SDS011;6703;51.994;7.570;2022-09-09T15:48:26;4.13;;;0.83;;
13269;SDS011;6703;51.994;7.570;2022-09-09T15:51:06;2.97;;;0.90;;